createdAt,value
2018-09-27T00:01:39.752Z,42.5
2018-09-27T00:11:38.971Z,42.4
2018-09-27T00:21:38.185Z,42.4
2018-09-27T00:31:37.403Z,42.3
2018-09-27T00:41:36.624Z,42.3
2018-09-27T00:51:35.838Z,42.2
2018-09-27T01:01:35.065Z,42.2
2018-09-27T01:11:34.328Z,42.1
2018-09-27T01:21:33.490Z,42.1
2018-09-27T01:31:32.781Z,42
2018-09-27T01:41:31.932Z,41.9
2018-09-27T01:51:31.150Z,41.9
2018-09-27T02:01:30.372Z,41.9
2018-09-27T02:11:29.591Z,41.8
2018-09-27T02:21:28.805Z,41.8
2018-09-27T02:31:28.022Z,41.7
2018-09-27T02:41:27.237Z,39.3
2018-09-27T02:51:26.455Z,37.1
2018-09-27T03:01:25.671Z,36.9
2018-09-27T03:11:24.890Z,35.9
2018-09-27T03:21:24.111Z,32.9
2018-09-27T03:31:23.335Z,32.9
2018-09-27T03:41:22.543Z,32.8
2018-09-27T03:51:21.769Z,31.8
2018-09-27T04:01:20.984Z,31.8
2018-09-27T04:11:20.205Z,31.4
2018-09-27T04:21:19.421Z,31.2
2018-09-27T04:31:18.640Z,31.3
2018-09-27T04:41:17.853Z,31.1
2018-09-27T04:51:17.079Z,31.1
2018-09-27T05:01:16.346Z,31.2
2018-09-27T05:11:15.518Z,31.3
2018-09-27T05:21:14.733Z,31.4
2018-09-27T05:31:13.947Z,31.4
2018-09-27T05:41:13.163Z,31.5
2018-09-27T05:51:12.486Z,31.6
2018-09-27T06:01:11.604Z,31.9
2018-09-27T06:11:10.832Z,32.4
2018-09-27T06:21:10.038Z,33.1
2018-09-27T06:31:09.258Z,33.9
2018-09-27T06:41:08.485Z,34.8
2018-09-27T06:51:07.697Z,35.8
2018-09-27T07:01:06.916Z,36.8
2018-09-27T07:11:06.133Z,37.8
2018-09-27T07:21:05.351Z,38.8
2018-09-27T07:31:04.579Z,39.8
2018-09-27T07:41:03.836Z,40.7
2018-09-27T07:51:03.008Z,41.6
2018-09-27T08:01:02.240Z,42.4
2018-09-27T08:11:01.479Z,43.1
2018-09-27T08:21:00.749Z,43.8
2018-09-27T08:31:00.056Z,44.5
2018-09-27T08:40:59.092Z,45.2
2018-09-27T08:50:58.359Z,45.9
2018-09-27T09:00:57.529Z,46.6
2018-09-27T09:10:56.743Z,47.3
2018-09-27T09:20:55.962Z,48.1
2018-09-27T09:30:55.179Z,48.8
2018-09-27T09:40:54.403Z,49.6
2018-09-27T09:50:53.659Z,50.3
2018-09-27T10:00:52.829Z,51.1
2018-09-27T10:10:52.050Z,51.8
2018-09-27T10:20:51.264Z,52.5
2018-09-27T10:30:50.476Z,53.3
2018-09-27T10:40:49.690Z,54
2018-09-27T10:50:48.912Z,54.8
2018-09-27T11:00:48.129Z,55.4
2018-09-27T11:10:47.349Z,56.1
2018-09-27T11:20:46.561Z,56.9
2018-09-27T11:30:45.778Z,57.6
2018-09-27T11:40:44.993Z,58.3
2018-09-27T11:50:44.206Z,58.9
2018-09-27T12:00:43.530Z,59.8
2018-09-27T12:10:42.644Z,60.3
2018-09-27T12:20:41.864Z,60.9
2018-09-27T12:30:41.074Z,61.6
2018-09-27T12:40:40.316Z,62.2
2018-09-27T12:50:39.556Z,62.8
2018-09-27T13:00:38.781Z,63.3
2018-09-27T13:10:37.945Z,63.9
2018-09-27T13:20:37.195Z,64.4
2018-09-27T13:30:36.378Z,64.9
2018-09-27T13:40:35.591Z,65.5
2018-09-27T13:50:34.820Z,66
2018-09-27T14:00:34.029Z,66.4
2018-09-27T14:10:33.247Z,66.9
2018-09-27T14:20:32.462Z,67.3
2018-09-27T14:30:31.682Z,67.6
2018-09-27T14:40:30.892Z,68.1
2018-09-27T14:50:30.103Z,68.4
2018-09-27T15:00:29.386Z,68.6
2018-09-27T15:10:28.619Z,68.9
2018-09-27T15:20:27.754Z,69
2018-09-27T15:30:26.992Z,69.1
2018-09-27T15:40:26.196Z,69
2018-09-27T15:50:25.409Z,68.9
2018-09-27T16:00:24.628Z,66.9
2018-09-27T16:10:23.895Z,58.8
2018-09-27T16:20:23.059Z,57.3
2018-09-27T16:30:22.275Z,56.5
2018-09-27T16:40:21.543Z,55.9
2018-09-27T16:50:20.714Z,55.6
2018-09-27T17:00:19.921Z,55.3
2018-09-27T17:10:19.140Z,54.9
2018-09-27T17:20:18.357Z,54.3
2018-09-27T17:30:17.571Z,52.1
2018-09-27T17:40:16.825Z,49.9
2018-09-27T17:50:16.009Z,48.4
2018-09-27T18:00:15.226Z,48.8
2018-09-27T18:10:14.498Z,48.7
2018-09-27T18:20:13.663Z,48.8
2018-09-27T18:30:12.919Z,47.3
2018-09-27T18:40:12.148Z,45.5
2018-09-27T18:50:11.310Z,44.4
2018-09-27T19:00:10.545Z,43.9
2018-09-27T19:10:09.747Z,42.3
2018-09-27T19:20:08.970Z,40.8
2018-09-27T19:30:08.205Z,37.8
2018-09-27T19:40:07.410Z,35.5
2018-09-27T19:50:06.627Z,35.9
2018-09-27T20:00:05.848Z,35.8
2018-09-27T20:10:05.097Z,36.1
2018-09-27T20:20:04.282Z,35.9
2018-09-27T20:30:03.502Z,36.2
2018-09-27T20:40:02.722Z,36.4
2018-09-27T20:50:01.995Z,36.4
2018-09-27T21:00:01.211Z,36.6
2018-09-27T21:10:00.380Z,36.7
2018-09-27T21:19:59.597Z,36.8
2018-09-27T21:29:58.822Z,36.9
2018-09-27T21:39:58.038Z,37
2018-09-27T21:49:57.404Z,37.1
2018-09-27T21:59:56.486Z,37.1
2018-09-27T22:09:55.701Z,37.3
2018-09-27T22:19:54.919Z,37.3
2018-09-27T22:29:54.186Z,37.4
2018-09-27T22:39:53.356Z,37.4
2018-09-27T22:49:52.579Z,37.5
2018-09-27T22:59:51.791Z,37.6
2018-09-27T23:09:51.007Z,37.6
2018-09-27T23:19:50.208Z,37.6
2018-09-27T23:29:49.426Z,37.7
2018-09-27T23:39:48.643Z,37.8
2018-09-27T23:49:47.859Z,37.8
2018-09-27T23:59:47.079Z,37.9
